^^

..:: Storico WU ::..




Lo storico viene creato da WUnderground con i dati che la stazione Meteomincio invia al loro server. L' aggiornamento viene fatto ogni 5 minuti circa, tuttavia possono esserci intervalli pił ampi a causa di errori, interruzioni di servizio o problemi nell' invio tramite FTP.


Storico stazione MeteoMincio
Giorno Sommario per Luglio 17, 2022 Unità:  Inglese    Metrico   Entrambi
Giorno Settimana Mese Anno
  Max: Min: Media:
Temperatura: 91.4 °F 75.2 °F 83.3 °F
Dew Point: 69.8 °F 64.4 °F 68 °F
Umidità: 75% 47% 61%
Velocità vento: 15.5mph 1.2mph 7.3mph
Raffica: 24.2mph - -
Direzione- - East
Pressione: 30.1 in 30 in -
Precipitazioni: 0 in    
 
 
Tabulato Dati per Luglio 17, 2022
Ora Temperatura Dew Point Pressione Direzione Velocità vento Raffica Umidità Intensità pioggia (oraria) Info solare Situazione
00:04 80.6 °F 68 °F 30 in NE 4.3 mph 6.8 mph 67% 0 in 0.00 W/m2 unknown
00:09 80.6 °F 68 °F 30 in NE 6.2 mph 8.1 mph 67% 0 in 0.00 W/m2 unknown
00:14 78.8 °F 68 °F 30 in NE 5 mph 8.1 mph 68% 0 in 0.00 W/m2 unknown
00:19 78.8 °F 68 °F 30 in NE 5 mph 6.8 mph 69% 0 in 0.00 W/m2 unknown
00:24 78.8 °F 68 °F 30 in NE 5 mph 6.2 mph 69% 0 in 0.00 W/m2 unknown
00:29 78.8 °F 68 °F 30 in NE 5.6 mph 6.8 mph 70% 0 in 0.00 W/m2 unknown
00:34 78.8 °F 68 °F 30 in ENE 5.6 mph 9.3 mph 71% 0 in 0.00 W/m2 unknown
00:39 78.8 °F 68 °F 30 in ENE 5.6 mph 8.7 mph 71% 0 in 0.00 W/m2 unknown
00:44 77 °F 68 °F 30 in ENE 5.6 mph 8.1 mph 71% 0 in 0.00 W/m2 unknown
00:49 77 °F 68 °F 30 in ENE 6.2 mph 8.1 mph 72% 0 in 0.00 W/m2 unknown
00:54 77 °F 68 °F 30 in ENE 4.3 mph 6.8 mph 72% 0 in 0.00 W/m2 unknown
00:59 77 °F 68 °F 30 in ENE 4.3 mph 6.8 mph 72% 0 in 0.00 W/m2 unknown
01:04 77 °F 68 °F 30 in ENE 5 mph 6.8 mph 73% 0 in 0.00 W/m2 unknown
01:09 77 °F 68 °F 30 in ENE 5 mph 6.8 mph 73% 0 in 0.00 W/m2 unknown
01:14 77 °F 68 °F 30 in ENE 5 mph 6.8 mph 73% 0 in 0.00 W/m2 unknown
01:19 77 °F 68 °F 30 in ENE 4.3 mph 5 mph 73% 0 in 0.00 W/m2 unknown
01:24 77 °F 68 °F 30 in ENE 4.3 mph 6.8 mph 73% 0 in 0.00 W/m2 unknown
01:29 77 °F 68 °F 30 in ENE 5 mph 8.1 mph 73% 0 in 0.00 W/m2 unknown
01:34 77 °F 68 °F 30 in ENE 5 mph 8.1 mph 73% 0 in 0.00 W/m2 unknown
01:39 77 °F 68 °F 30 in ENE 5 mph 8.1 mph 73% 0 in 0.00 W/m2 unknown
01:44 77 °F 68 °F 30 in ENE 5 mph 8.1 mph 74% 0 in 0.00 W/m2 unknown
01:54 77 °F 68 °F 30 in ENE 5 mph 8.1 mph 74% 0 in 0.00 W/m2 unknown
01:59 77 °F 68 °F 30 in ENE 3.7 mph 6.2 mph 74% 0 in 0.00 W/m2 unknown
02:04 77 °F 68 °F 30 in ENE 3.7 mph 5 mph 74% 0 in 0.00 W/m2 unknown
02:09 77 °F 68 °F 30 in ENE 3.7 mph 5 mph 75% 0 in 0.00 W/m2 unknown
02:14 75.2 °F 68 °F 30 in ENE 3.1 mph 5 mph 75% 0 in 0.00 W/m2 unknown
02:19 75.2 °F 68 °F 30 in ENE 3.1 mph 3.7 mph 75% 0 in 0.00 W/m2 unknown
02:24 75.2 °F 68 °F 30 in ENE 2.5 mph 3.7 mph 75% 0 in 0.00 W/m2 unknown
02:29 75.2 °F 68 °F 30 in ENE 3.1 mph 5 mph 75% 0 in 0.00 W/m2 unknown
02:34 75.2 °F 68 °F 30 in ENE 3.1 mph 5 mph 75% 0 in 0.00 W/m2 unknown
02:39 75.2 °F 68 °F 30 in ENE 2.5 mph 3.7 mph 75% 0 in 0.00 W/m2 unknown
02:44 75.2 °F 68 °F 30 in ENE 1.2 mph 3.1 mph 75% 0 in 0.00 W/m2 unknown
02:49 75.2 °F 68 °F 30 in ENE 3.1 mph 3.7 mph 75% 0 in 0.00 W/m2 unknown
02:54 75.2 °F 68 °F 30 in ENE 3.7 mph 5 mph 75% 0 in 0.00 W/m2 unknown
02:59 75.2 °F 68 °F 30 in ENE 3.7 mph 5 mph 74% 0 in 0.00 W/m2 unknown
03:04 75.2 °F 68 °F 30 in ENE 2.5 mph 5 mph 74% 0 in 0.00 W/m2 unknown
03:09 75.2 °F 68 °F 30 in East 3.1 mph 5 mph 74% 0 in 0.00 W/m2 unknown
03:14 75.2 °F 68 °F 30 in East 2.5 mph 5 mph 74% 0 in 0.00 W/m2 unknown
03:19 75.2 °F 68 °F 30 in ENE 2.5 mph 5 mph 75% 0 in 0.00 W/m2 unknown
03:24 75.2 °F 66.2 °F 30 in ENE 3.7 mph 3.7 mph 74% 0 in 0.00 W/m2 unknown
03:29 75.2 °F 66.2 °F 30 in ENE 4.3 mph 5 mph 74% 0 in 0.00 W/m2 unknown
03:34 75.2 °F 66.2 °F 30 in ENE 4.3 mph 6.8 mph 74% 0 in 0.00 W/m2 unknown
03:39 75.2 °F 66.2 °F 30 in ENE 3.7 mph 6.8 mph 73% 0 in 0.00 W/m2 unknown
03:44 75.2 °F 66.2 °F 30 in ENE 3.7 mph 6.2 mph 71% 0 in 0.00 W/m2 unknown
03:49 75.2 °F 66.2 °F 30 in ENE 4.3 mph 6.2 mph 71% 0 in 0.00 W/m2 unknown
03:54 77 °F 66.2 °F 30 in ENE 5 mph 6.8 mph 70% 0 in 0.00 W/m2 unknown
03:59 77 °F 66.2 °F 30 in ENE 6.2 mph 8.1 mph 70% 0 in 0.00 W/m2 unknown
04:04 77 °F 66.2 °F 30 in ENE 6.2 mph 8.1 mph 70% 0 in 0.00 W/m2 unknown
04:09 77 °F 66.2 °F 30 in ENE 6.2 mph 8.1 mph 70% 0 in 0.00 W/m2 unknown
04:14 77 °F 66.2 °F 30 in ENE 6.2 mph 8.1 mph 71% 0 in 0.00 W/m2 unknown
04:19 77 °F 66.2 °F 30 in East 5.6 mph 8.1 mph 71% 0 in 0.00 W/m2 unknown
04:24 77 °F 66.2 °F 30 in ENE 6.2 mph 9.3 mph 71% 0 in 0.00 W/m2 unknown
04:29 77 °F 66.2 °F 30 in East 6.2 mph 9.3 mph 70% 0 in 0.00 W/m2 unknown
04:34 77 °F 66.2 °F 30 in East 6.8 mph 9.3 mph 70% 0 in 0.00 W/m2 unknown
04:39 77 °F 66.2 °F 30 in East 8.1 mph 11.8 mph 70% 0 in 0.00 W/m2 unknown
04:44 78.8 °F 66.2 °F 30 in East 9.3 mph 14.9 mph 69% 0 in 0.00 W/m2 unknown
04:49 78.8 °F 68 °F 30 in East 7.5 mph 14.9 mph 69% 0 in 0.00 W/m2 unknown
04:54 78.8 °F 68 °F 30 in ENE 9.3 mph 14.9 mph 69% 0 in 0.00 W/m2 unknown
04:59 78.8 °F 68 °F 30 in ENE 9.9 mph 14.9 mph 69% 0 in 0.00 W/m2 unknown
05:04 78.8 °F 68 °F 30 in ENE 13 mph 17.4 mph 68% 0 in 0.00 W/m2 unknown
05:09 78.8 °F 68 °F 30 in ENE 13 mph 17.4 mph 69% 0 in 0.00 W/m2 unknown
05:14 78.8 °F 68 °F 30 in ENE 12.4 mph 17.4 mph 69% 0 in 0.00 W/m2 unknown
05:19 78.8 °F 68 °F 30 in ENE 13 mph 16.8 mph 69% 0 in 0.00 W/m2 unknown
05:24 78.8 °F 68 °F 30 in ENE 11.8 mph 16.2 mph 69% 0 in 0.00 W/m2 unknown
05:29 78.8 °F 68 °F 30 in ENE 11.2 mph 16.2 mph 69% 0 in 0.00 W/m2 unknown
05:34 78.8 °F 68 °F 30.1 in East 10.6 mph 16.2 mph 70% 0 in 0.00 W/m2 unknown
05:39 78.8 °F 68 °F 30.1 in ENE 10.6 mph 14.9 mph 70% 0 in 0.00 W/m2 unknown
05:44 78.8 °F 68 °F 30.1 in ENE 10.6 mph 14.9 mph 70% 0 in 0.00 W/m2 unknown
05:49 78.8 °F 68 °F 30.1 in ENE 11.2 mph 16.2 mph 70% 0 in 0.00 W/m2 unknown
05:54 78.8 °F 68 °F 30.1 in ENE 8.7 mph 16.2 mph 70% 0 in 5.00 W/m2 unknown
05:59 77 °F 68 °F 30.1 in ENE 8.7 mph 14.3 mph 70% 0 in 7.00 W/m2 unknown
06:04 77 °F 66.2 °F 30.1 in ENE 8.7 mph 14.3 mph 70% 0 in 11.00 W/m2 unknown
06:09 77 °F 66.2 °F 30.1 in East 9.9 mph 13 mph 70% 0 in 14.00 W/m2 unknown
06:14 77 °F 66.2 °F 30.1 in East 11.8 mph 18.6 mph 70% 0 in 18.00 W/m2 unknown
06:19 77 °F 66.2 °F 30.1 in East 11.8 mph 18.6 mph 70% 0 in 23.00 W/m2 unknown
06:24 77 °F 66.2 °F 30.1 in East 8.7 mph 18 mph 69% 0 in 28.00 W/m2 unknown
06:29 77 °F 66.2 °F 30.1 in East 6.8 mph 10.6 mph 69% 0 in 32.00 W/m2 unknown
06:34 77 °F 66.2 °F 30.1 in East 7.5 mph 10.6 mph 70% 0 in 33.00 W/m2 unknown
06:39 77 °F 66.2 °F 30.1 in East 6.8 mph 11.8 mph 70% 0 in 37.00 W/m2 unknown
06:44 77 °F 66.2 °F 30.1 in East 5.6 mph 11.8 mph 70% 0 in 40.00 W/m2 unknown
06:49 77 °F 66.2 °F 30.1 in East 6.8 mph 11.8 mph 70% 0 in 49.00 W/m2 unknown
06:54 77 °F 66.2 °F 30.1 in East 6.2 mph 11.8 mph 70% 0 in 63.00 W/m2 unknown
06:59 77 °F 66.2 °F 30.1 in East 8.1 mph 11.8 mph 70% 0 in 69.00 W/m2 unknown
07:04 77 °F 66.2 °F 30.1 in ENE 9.3 mph 14.9 mph 69% 0 in 67.00 W/m2 unknown
07:09 77 °F 66.2 °F 30.1 in East 7.5 mph 14.9 mph 68% 0 in 69.00 W/m2 unknown
07:14 77 °F 66.2 °F 30.1 in ENE 9.9 mph 14.3 mph 68% 0 in 69.00 W/m2 unknown
07:19 77 °F 66.2 °F 30.1 in East 9.3 mph 14.9 mph 68% 0 in 63.00 W/m2 unknown
07:24 77 °F 66.2 °F 30.1 in East 7.5 mph 14.9 mph 68% 0 in 69.00 W/m2 unknown
07:29 77 °F 66.2 °F 30.1 in East 7.5 mph 11.8 mph 68% 0 in 76.00 W/m2 unknown
07:34 77 °F 66.2 °F 30.1 in East 8.1 mph 11.8 mph 68% 0 in 88.00 W/m2 unknown
07:39 77 °F 66.2 °F 30.1 in ENE 10.6 mph 14.9 mph 68% 0 in 95.00 W/m2 unknown
07:44 77 °F 64.4 °F 30.1 in ENE 9.9 mph 14.9 mph 67% 0 in 125.00 W/m2 unknown
07:49 77 °F 64.4 °F 30.1 in ENE 9.3 mph 13 mph 66% 0 in 97.00 W/m2 unknown
07:54 77 °F 64.4 °F 30.1 in ENE 10.6 mph 14.3 mph 66% 0 in 111.00 W/m2 unknown
07:59 77 °F 64.4 °F 30.1 in ENE 10.6 mph 14.3 mph 65% 0 in 130.00 W/m2 unknown
08:04 78.8 °F 64.4 °F 30.1 in East 11.2 mph 16.2 mph 65% 0 in 144.00 W/m2 unknown
08:09 78.8 °F 64.4 °F 30.1 in ENE 13 mph 16.2 mph 64% 0 in 165.00 W/m2 unknown
08:14 78.8 °F 64.4 °F 30.1 in ENE 9.9 mph 16.2 mph 64% 0 in 290.00 W/m2 unknown
08:19 78.8 °F 66.2 °F 30.1 in ENE 11.2 mph 17.4 mph 64% 0 in 290.00 W/m2 unknown
08:24 78.8 °F 66.2 °F 30.1 in ENE 11.8 mph 17.4 mph 64% 0 in 267.00 W/m2 unknown
08:29 78.8 °F 66.2 °F 30.1 in ENE 11.8 mph 16.8 mph 63% 0 in 281.00 W/m2 unknown
08:34 78.8 °F 66.2 °F 30.1 in ENE 11.2 mph 16.2 mph 63% 0 in 290.00 W/m2 unknown
08:39 80.6 °F 66.2 °F 30.1 in ENE 10.6 mph 14.9 mph 63% 0 in 306.00 W/m2 unknown
08:44 80.6 °F 66.2 °F 30.1 in ENE 15.5 mph 21.1 mph 63% 0 in 316.00 W/m2 unknown
08:49 80.6 °F 66.2 °F 30.1 in East 15.5 mph 23 mph 62% 0 in 329.00 W/m2 unknown
08:54 80.6 °F 66.2 °F 30.1 in ENE 11.8 mph 23 mph 62% 0 in 338.00 W/m2 unknown
08:59 80.6 °F 66.2 °F 30.1 in East 11.8 mph 21.1 mph 61% 0 in 355.00 W/m2 unknown
09:04 80.6 °F 66.2 °F 30.1 in East 11.2 mph 21.1 mph 62% 0 in 367.00 W/m2 unknown
09:09 80.6 °F 66.2 °F 30.1 in East 11.8 mph 14.9 mph 62% 0 in 387.00 W/m2 unknown
09:14 80.6 °F 68 °F 30.1 in East 12.4 mph 19.3 mph 62% 0 in 396.00 W/m2 unknown
09:19 80.6 °F 66.2 °F 30.1 in East 13 mph 19.9 mph 61% 0 in 413.00 W/m2 unknown
09:24 82.4 °F 68 °F 30.1 in ESE 14.9 mph 21.1 mph 62% 0 in 427.00 W/m2 unknown
09:27 82.4 °F 66.2 °F 30.1 in ESE 13 mph 24.2 mph 61% 0 in 432.00 W/m2 unknown
09:39 82.4 °F 66.2 °F 30.1 in East 11.2 mph 20.5 mph 60% 0 in 466.00 W/m2 unknown
09:44 82.4 °F 66.2 °F 30.1 in ENE 14.3 mph 17.4 mph 60% 0 in 476.00 W/m2 unknown
09:49 82.4 °F 68 °F 30.1 in East 12.4 mph 16.8 mph 62% 0 in 496.00 W/m2 unknown
09:54 82.4 °F 68 °F 30.1 in East 11.8 mph 17.4 mph 61% 0 in 513.00 W/m2 unknown
09:59 82.4 °F 68 °F 30.1 in ENE 12.4 mph 17.4 mph 61% 0 in 519.00 W/m2 unknown
10:04 84.2 °F 68 °F 30.1 in East 10.6 mph 16.8 mph 60% 0 in 534.00 W/m2 unknown
10:09 84.2 °F 68 °F 30.1 in East 11.8 mph 17.4 mph 61% 0 in 547.00 W/m2 unknown
10:14 84.2 °F 68 °F 30.1 in East 14.9 mph 19.9 mph 61% 0 in 555.00 W/m2 unknown
10:19 84.2 °F 68 °F 30.1 in ENE 13 mph 19.9 mph 61% 0 in 564.00 W/m2 unknown
10:24 84.2 °F 68 °F 30.1 in ENE 13.7 mph 17.4 mph 60% 0 in 573.00 W/m2 unknown
10:29 84.2 °F 68 °F 30.1 in East 13.7 mph 18.6 mph 60% 0 in 584.00 W/m2 unknown
10:34 84.2 °F 69.8 °F 30.1 in East 10.6 mph 14.9 mph 61% 0 in 596.00 W/m2 unknown
10:39 86 °F 69.8 °F 30.1 in East 11.2 mph 14.9 mph 61% 0 in 606.00 W/m2 unknown
10:44 86 °F 69.8 °F 30.1 in East 13.7 mph 18.6 mph 61% 0 in 615.00 W/m2 unknown
10:49 84.2 °F 69.8 °F 30.1 in East 13.7 mph 18.6 mph 61% 0 in 626.00 W/m2 unknown
10:54 86 °F 69.8 °F 30.1 in East 10.6 mph 18 mph 61% 0 in 640.00 W/m2 unknown
10:59 86 °F 69.8 °F 30.1 in East 10.6 mph 14.9 mph 60% 0 in 645.00 W/m2 unknown
11:04 86 °F 69.8 °F 30.1 in ENE 9.3 mph 14.3 mph 60% 0 in 661.00 W/m2 unknown
11:09 86 °F 69.8 °F 30.1 in East 10.6 mph 14.3 mph 60% 0 in 666.00 W/m2 unknown
11:14 86 °F 69.8 °F 30.1 in East 11.2 mph 14.3 mph 60% 0 in 679.00 W/m2 unknown
11:19 86 °F 69.8 °F 30.1 in East 9.9 mph 14.9 mph 58% 0 in 684.00 W/m2 unknown
11:24 86 °F 69.8 °F 30.1 in East 9.9 mph 14.9 mph 59% 0 in 696.00 W/m2 unknown
11:29 86 °F 69.8 °F 30.1 in ESE 10.6 mph 14.9 mph 59% 0 in 705.00 W/m2 unknown
11:34 86 °F 69.8 °F 30.1 in East 13 mph 17.4 mph 58% 0 in 715.00 W/m2 unknown
11:39 86 °F 68 °F 30.1 in East 11.8 mph 16.8 mph 56% 0 in 722.00 W/m2 unknown
11:44 86 °F 69.8 °F 30.1 in ENE 9.9 mph 14.9 mph 56% 0 in 731.00 W/m2 unknown
11:49 86 °F 69.8 °F 30.1 in ENE 11.8 mph 14.9 mph 56% 0 in 738.00 W/m2 unknown
11:54 86 °F 69.8 °F 30.1 in East 10.6 mph 16.2 mph 56% 0 in 744.00 W/m2 unknown
11:59 87.8 °F 69.8 °F 30.1 in ENE 9.9 mph 16.2 mph 56% 0 in 752.00 W/m2 unknown
12:04 87.8 °F 69.8 °F 30.1 in East 10.6 mph 14.3 mph 56% 0 in 759.00 W/m2 unknown
12:09 87.8 °F 69.8 °F 30.1 in ESE 8.7 mph 14.3 mph 56% 0 in 770.00 W/m2 unknown
12:14 87.8 °F 69.8 °F 30.1 in ESE 9.3 mph 13 mph 56% 0 in 770.00 W/m2 unknown
12:19 87.8 °F 69.8 °F 30.1 in ENE 10.6 mph 14.3 mph 55% 0 in 779.00 W/m2 unknown
12:24 87.8 °F 69.8 °F 30.1 in ENE 10.6 mph 14.3 mph 54% 0 in 786.00 W/m2 unknown
12:29 87.8 °F 69.8 °F 30.1 in East 8.7 mph 14.3 mph 54% 0 in 793.00 W/m2 unknown
12:34 87.8 °F 69.8 °F 30.1 in East 10.6 mph 14.9 mph 54% 0 in 795.00 W/m2 unknown
12:39 87.8 °F 69.8 °F 30.1 in East 9.9 mph 14.9 mph 54% 0 in 798.00 W/m2 unknown
12:44 87.8 °F 69.8 °F 30.1 in ENE 11.2 mph 13.7 mph 53% 0 in 800.00 W/m2 unknown
12:49 87.8 °F 69.8 °F 30.1 in ENE 9.9 mph 14.3 mph 53% 0 in 803.00 W/m2 unknown
12:54 87.8 °F 69.8 °F 30.1 in East 8.1 mph 13 mph 54% 0 in 809.00 W/m2 unknown
12:59 87.8 °F 69.8 °F 30.1 in East 8.1 mph 13 mph 53% 0 in 810.00 W/m2 unknown
13:04 89.6 °F 69.8 °F 30.1 in ENE 8.7 mph 11.8 mph 53% 0 in 809.00 W/m2 unknown
13:09 89.6 °F 69.8 °F 30.1 in East 8.7 mph 13 mph 52% 0 in 810.00 W/m2 unknown
13:14 89.6 °F 69.8 °F 30.1 in East 9.3 mph 13 mph 53% 0 in 817.00 W/m2 unknown
13:19 89.6 °F 69.8 °F 30.1 in ESE 9.9 mph 13 mph 53% 0 in 817.00 W/m2 unknown
13:24 87.8 °F 69.8 °F 30.1 in ESE 9.9 mph 13 mph 53% 0 in 823.00 W/m2 unknown
13:29 87.8 °F 69.8 °F 30.1 in ENE 8.1 mph 13 mph 53% 0 in 821.00 W/m2 unknown
13:34 89.6 °F 69.8 °F 30.1 in ENE 6.8 mph 13 mph 52% 0 in 819.00 W/m2 unknown
13:39 89.6 °F 69.8 °F 30.1 in ENE 8.7 mph 11.8 mph 52% 0 in 821.00 W/m2 unknown
13:44 89.6 °F 69.8 °F 30.1 in East 8.1 mph 11.8 mph 52% 0 in 821.00 W/m2 unknown
13:49 89.6 °F 69.8 °F 30.1 in ENE 8.1 mph 11.8 mph 52% 0 in 821.00 W/m2 unknown
13:54 89.6 °F 69.8 °F 30.1 in ENE 8.7 mph 11.8 mph 51% 0 in 819.00 W/m2 unknown
13:59 89.6 °F 69.8 °F 30.1 in ESE 8.1 mph 11.8 mph 52% 0 in 819.00 W/m2 unknown
14:04 89.6 °F 69.8 °F 30.1 in ESE 9.3 mph 11.8 mph 53% 0 in 819.00 W/m2 unknown
14:09 89.6 °F 69.8 °F 30.1 in East 8.1 mph 11.8 mph 53% 0 in 817.00 W/m2 unknown
14:14 89.6 °F 69.8 °F 30.1 in ESE 8.1 mph 11.8 mph 52% 0 in 817.00 W/m2 unknown
14:19 89.6 °F 69.8 °F 30.1 in East 7.5 mph 11.8 mph 52% 0 in 814.00 W/m2 unknown
14:24 89.6 °F 69.8 °F 30.1 in East 6.8 mph 10.6 mph 50% 0 in 814.00 W/m2 unknown
14:29 89.6 °F 69.8 °F 30.1 in ESE 6.8 mph 9.9 mph 50% 0 in 807.00 W/m2 unknown
14:34 89.6 °F 69.8 °F 30.1 in ESE 8.7 mph 11.8 mph 51% 0 in 805.00 W/m2 unknown
14:39 89.6 °F 69.8 °F 30.1 in East 9.9 mph 11.8 mph 51% 0 in 803.00 W/m2 unknown
14:44 89.6 °F 69.8 °F 30.1 in East 8.1 mph 11.8 mph 50% 0 in 798.00 W/m2 unknown
14:49 91.4 °F 68 °F 30.1 in East 12.4 mph 16.2 mph 49% 0 in 793.00 W/m2 unknown
14:54 89.6 °F 69.8 °F 30.1 in ENE 9.9 mph 16.2 mph 50% 0 in 791.00 W/m2 unknown
14:59 91.4 °F 68 °F 30.1 in East 8.1 mph 14.3 mph 49% 0 in 788.00 W/m2 unknown
15:04 91.4 °F 68 °F 30.1 in ENE 8.7 mph 13 mph 49% 0 in 780.00 W/m2 unknown
15:09 91.4 °F 68 °F 30.1 in East 8.7 mph 13 mph 49% 0 in 779.00 W/m2 unknown
15:14 91.4 °F 68 °F 30.1 in East 9.3 mph 13 mph 49% 0 in 768.00 W/m2 unknown
15:19 91.4 °F 68 °F 30.1 in East 9.3 mph 13 mph 48% 0 in 761.00 W/m2 unknown
15:24 91.4 °F 68 °F 30.1 in ENE 8.7 mph 13 mph 48% 0 in 756.00 W/m2 unknown
15:29 91.4 °F 68 °F 30.1 in ESE 8.1 mph 13 mph 47% 0 in 747.00 W/m2 unknown
15:34 91.4 °F 69.8 °F 30.1 in East 8.1 mph 11.8 mph 50% 0 in 737.00 W/m2 unknown
15:39 91.4 °F 68 °F 30.1 in ESE 8.1 mph 11.2 mph 47% 0 in 733.00 W/m2 unknown
15:44 91.4 °F 69.8 °F 30.1 in ESE 7.5 mph 11.8 mph 49% 0 in 728.00 W/m2 unknown
15:49 91.4 °F 68 °F 30.1 in SE 6.2 mph 11.8 mph 48% 0 in 717.00 W/m2 unknown
15:54 91.4 °F 69.8 °F 30.1 in East 6.8 mph 9.9 mph 50% 0 in 710.00 W/m2 unknown
15:59 91.4 °F 69.8 °F 30.1 in ENE 8.1 mph 10.6 mph 49% 0 in 701.00 W/m2 unknown
16:04 91.4 °F 69.8 °F 30.1 in ENE 8.7 mph 10.6 mph 49% 0 in 689.00 W/m2 unknown
16:09 91.4 °F 69.8 °F 30.1 in ESE 6.2 mph 9.9 mph 50% 0 in 679.00 W/m2 unknown
16:14 91.4 °F 69.8 °F 30.1 in East 7.5 mph 9.3 mph 50% 0 in 673.00 W/m2 unknown
16:19 91.4 °F 69.8 °F 30.1 in East 8.7 mph 10.6 mph 49% 0 in 663.00 W/m2 unknown
16:24 91.4 °F 68 °F 30.1 in East 9.3 mph 11.8 mph 47% 0 in 652.00 W/m2 unknown
16:29 91.4 °F 68 °F 30.1 in ENE 8.7 mph 11.8 mph 47% 0 in 643.00 W/m2 unknown
16:34 91.4 °F 69.8 °F 30.1 in ENE 5.6 mph 11.8 mph 49% 0 in 633.00 W/m2 unknown
16:39 91.4 °F 69.8 °F 30.1 in East 6.2 mph 9.3 mph 49% 0 in 621.00 W/m2 unknown
16:44 91.4 °F 68 °F 30.1 in East 8.1 mph 10.6 mph 47% 0 in 608.00 W/m2 unknown
16:49 91.4 °F 69.8 °F 30.1 in East 7.5 mph 10.6 mph 49% 0 in 599.00 W/m2 unknown
16:54 91.4 °F 69.8 °F 30.1 in East 8.1 mph 10.6 mph 48% 0 in 591.00 W/m2 unknown
16:59 91.4 °F 69.8 °F 30.1 in East 6.8 mph 10.6 mph 49% 0 in 578.00 W/m2 unknown
17:04 91.4 °F 68 °F 30.1 in ESE 6.2 mph 9.9 mph 48% 0 in 563.00 W/m2 unknown
17:09 91.4 °F 69.8 °F 30.1 in East 8.1 mph 11.8 mph 49% 0 in 555.00 W/m2 unknown
17:14 91.4 °F 68 °F 30.1 in East 8.7 mph 11.8 mph 48% 0 in 545.00 W/m2 unknown
17:19 91.4 °F 68 °F 30.1 in East 6.2 mph 11.8 mph 48% 0 in 529.00 W/m2 unknown
17:24 91.4 °F 69.8 °F 30.1 in East 6.8 mph 8.1 mph 49% 0 in 519.00 W/m2 unknown
17:29 91.4 °F 68 °F 30.1 in East 6.8 mph 9.3 mph 48% 0 in 504.00 W/m2 unknown
17:34 91.4 °F 69.8 °F 30.1 in East 8.1 mph 10.6 mph 49% 0 in 494.00 W/m2 unknown
17:39 91.4 °F 69.8 °F 30.1 in ESE 7.5 mph 11.8 mph 50% 0 in 480.00 W/m2 unknown
17:44 91.4 °F 68 °F 30.1 in East 8.1 mph 11.8 mph 48% 0 in 469.00 W/m2 unknown
17:49 91.4 °F 69.8 °F 30.1 in East 6.2 mph 11.8 mph 49% 0 in 454.00 W/m2 unknown
17:54 91.4 °F 69.8 °F 30.1 in ESE 6.8 mph 9.9 mph 50% 0 in 441.00 W/m2 unknown
17:59 91.4 °F 68 °F 30.1 in ESE 8.1 mph 10.6 mph 49% 0 in 429.00 W/m2 unknown
18:04 91.4 °F 68 °F 30.1 in ESE 8.1 mph 10.6 mph 49% 0 in 417.00 W/m2 unknown
18:09 89.6 °F 69.8 °F 30.1 in ESE 7.5 mph 10.6 mph 50% 0 in 401.00 W/m2 unknown
18:14 89.6 °F 69.8 °F 30.1 in ESE 5.6 mph 9.9 mph 50% 0 in 385.00 W/m2 unknown
18:19 91.4 °F 69.8 °F 30.1 in East 7.5 mph 10.6 mph 50% 0 in 373.00 W/m2 unknown
18:24 91.4 °F 69.8 °F 30 in East 5 mph 9.9 mph 51% 0 in 362.00 W/m2 unknown
18:29 89.6 °F 69.8 °F 30 in East 5.6 mph 8.1 mph 51% 0 in 346.00 W/m2 unknown
18:34 89.6 °F 69.8 °F 30 in ESE 5.6 mph 8.1 mph 51% 0 in 330.00 W/m2 unknown
18:39 89.6 °F 69.8 °F 30 in East 5.6 mph 8.1 mph 51% 0 in 316.00 W/m2 unknown
18:44 89.6 °F 69.8 °F 30 in East 5.6 mph 8.1 mph 52% 0 in 301.00 W/m2 unknown
18:49 89.6 °F 69.8 °F 30 in East 5.6 mph 8.1 mph 52% 0 in 287.00 W/m2 unknown
18:54 89.6 °F 69.8 °F 30 in ESE 5.6 mph 8.1 mph 52% 0 in 272.00 W/m2 unknown
18:59 89.6 °F 69.8 °F 30 in ESE 6.2 mph 9.3 mph 52% 0 in 258.00 W/m2 unknown
19:04 89.6 °F 69.8 °F 30 in East 6.2 mph 9.3 mph 53% 0 in 243.00 W/m2 unknown
19:09 89.6 °F 69.8 °F 30 in East 5.6 mph 8.7 mph 53% 0 in 229.00 W/m2 unknown
19:14 89.6 °F 69.8 °F 30 in ENE 4.3 mph 6.8 mph 53% 0 in 213.00 W/m2 unknown
19:19 89.6 °F 69.8 °F 30 in ENE 4.3 mph 6.8 mph 54% 0 in 199.00 W/m2 unknown
19:24 89.6 °F 69.8 °F 30 in East 5.6 mph 8.1 mph 54% 0 in 188.00 W/m2 unknown
19:29 87.8 °F 69.8 °F 30 in East 5.6 mph 8.1 mph 54% 0 in 172.00 W/m2 unknown
19:34 87.8 °F 69.8 °F 30 in East 6.2 mph 8.1 mph 55% 0 in 156.00 W/m2 unknown
19:39 87.8 °F 69.8 °F 30 in ENE 5.6 mph 6.8 mph 55% 0 in 142.00 W/m2 unknown
19:44 87.8 °F 69.8 °F 30 in ENE 5.6 mph 8.1 mph 55% 0 in 128.00 W/m2 unknown
19:49 87.8 °F 69.8 °F 30 in ENE 5.6 mph 6.8 mph 55% 0 in 114.00 W/m2 unknown
19:54 87.8 °F 69.8 °F 30 in ENE 6.2 mph 8.1 mph 55% 0 in 98.00 W/m2 unknown
19:59 87.8 °F 69.8 °F 30.1 in ENE 6.2 mph 8.1 mph 55% 0 in 86.00 W/m2 unknown
20:04 87.8 °F 68 °F 30.1 in ENE 5.6 mph 8.1 mph 55% 0 in 74.00 W/m2 unknown
20:09 86 °F 68 °F 30.1 in ENE 5.6 mph 8.1 mph 55% 0 in 42.00 W/m2 unknown
20:14 86 °F 68 °F 30.1 in ENE 5 mph 8.1 mph 56% 0 in 32.00 W/m2 unknown
20:19 86 °F 68 °F 30.1 in ENE 5 mph 6.8 mph 56% 0 in 28.00 W/m2 unknown
20:24 86 °F 69.8 °F 30.1 in East 4.3 mph 6.8 mph 57% 0 in 25.00 W/m2 unknown
20:29 86 °F 69.8 °F 30.1 in East 3.1 mph 6.2 mph 58% 0 in 21.00 W/m2 unknown
20:34 86 °F 69.8 °F 30.1 in East 5 mph 6.8 mph 58% 0 in 19.00 W/m2 unknown
20:39 86 °F 68 °F 30.1 in East 3.7 mph 6.8 mph 58% 0 in 16.00 W/m2 unknown
20:44 86 °F 68 °F 30.1 in ESE 3.1 mph 6.2 mph 58% 0 in 12.00 W/m2 unknown
20:49 84.2 °F 69.8 °F 30.1 in ESE 3.1 mph 5 mph 60% 0 in 9.00 W/m2 unknown
20:54 84.2 °F 69.8 °F 30.1 in East 3.7 mph 5 mph 61% 0 in 7.00 W/m2 unknown
20:59 84.2 °F 69.8 °F 30.1 in East 3.7 mph 5 mph 61% 0 in 5.00 W/m2 unknown
21:04 84.2 °F 68 °F 30.1 in East 3.7 mph 5 mph 61% 0 in 0.00 W/m2 unknown
21:09 84.2 °F 68 °F 30.1 in East 4.3 mph 5 mph 61% 0 in 0.00 W/m2 unknown
21:14 84.2 °F 68 °F 30.1 in East 3.7 mph 5 mph 61% 0 in 0.00 W/m2 unknown
21:19 84.2 °F 68 °F 30.1 in East 3.1 mph 5 mph 61% 0 in 0.00 W/m2 unknown
21:24 82.4 °F 68 °F 30.1 in East 2.5 mph 5 mph 62% 0 in 0.00 W/m2 unknown
21:29 82.4 °F 68 °F 30.1 in East 2.5 mph 5 mph 62% 0 in 0.00 W/m2 unknown
21:34 82.4 °F 68 °F 30.1 in East 2.5 mph 5 mph 62% 0 in 0.00 W/m2 unknown
21:39 82.4 °F 68 °F 30.1 in East 2.5 mph 5 mph 63% 0 in 0.00 W/m2 unknown
21:44 82.4 °F 68 °F 30.1 in East 2.5 mph 5 mph 63% 0 in 0.00 W/m2 unknown
21:49 82.4 °F 68 °F 30.1 in East 3.1 mph 5 mph 64% 0 in 0.00 W/m2 unknown
21:54 82.4 °F 68 °F 30.1 in East 1.9 mph 5 mph 65% 0 in 0.00 W/m2 unknown
21:59 80.6 °F 68 °F 30.1 in East 2.5 mph 5 mph 65% 0 in 0.00 W/m2 unknown
22:04 80.6 °F 68 °F 30.1 in East 3.1 mph 5 mph 65% 0 in 0.00 W/m2 unknown
22:09 80.6 °F 68 °F 30.1 in East 3.7 mph 5 mph 65% 0 in 0.00 W/m2 unknown
22:14 80.6 °F 68 °F 30.1 in East 4.3 mph 6.2 mph 64% 0 in 0.00 W/m2 unknown
22:19 80.6 °F 68 °F 30.1 in East 4.3 mph 6.8 mph 64% 0 in 0.00 W/m2 unknown
22:24 80.6 °F 66.2 °F 30.1 in East 5 mph 6.8 mph 62% 0 in 0.00 W/m2 unknown
22:29 80.6 °F 66.2 °F 30.1 in East 5 mph 6.8 mph 62% 0 in 0.00 W/m2 unknown
22:34 80.6 °F 66.2 °F 30.1 in ENE 3.7 mph 6.2 mph 62% 0 in 0.00 W/m2 unknown
22:39 80.6 °F 66.2 °F 30.1 in East 5 mph 6.8 mph 62% 0 in 0.00 W/m2 unknown
22:44 80.6 °F 66.2 °F 30.1 in East 5 mph 6.8 mph 62% 0 in 0.00 W/m2 unknown
22:49 80.6 °F 66.2 °F 30.1 in East 4.3 mph 6.8 mph 62% 0 in 0.00 W/m2 unknown
22:54 80.6 °F 66.2 °F 30.1 in East 3.7 mph 6.2 mph 62% 0 in 0.00 W/m2 unknown
22:59 80.6 °F 66.2 °F 30.1 in ENE 3.7 mph 6.8 mph 62% 0 in 0.00 W/m2 unknown
23:04 80.6 °F 66.2 °F 30.1 in ENE 3.7 mph 6.8 mph 62% 0 in 0.00 W/m2 unknown
23:09 80.6 °F 66.2 °F 30.1 in ENE 4.3 mph 6.8 mph 62% 0 in 0.00 W/m2 unknown
23:14 80.6 °F 66.2 °F 30.1 in ENE 2.5 mph 6.8 mph 62% 0 in 0.00 W/m2 unknown
23:19 80.6 °F 66.2 °F 30.1 in ENE 3.1 mph 3.7 mph 62% 0 in 0.00 W/m2 unknown
23:24 80.6 °F 66.2 °F 30.1 in ENE 3.1 mph 5 mph 63% 0 in 0.00 W/m2 unknown
23:29 78.8 °F 66.2 °F 30.1 in ENE 2.5 mph 5 mph 63% 0 in 0.00 W/m2 unknown
23:34 78.8 °F 66.2 °F 30.1 in ENE 2.5 mph 3.7 mph 64% 0 in 0.00 W/m2 unknown
23:39 78.8 °F 66.2 °F 30.1 in ENE 2.5 mph 3.7 mph 64% 0 in 0.00 W/m2 unknown
23:44 78.8 °F 66.2 °F 30.1 in ENE 1.9 mph 3.1 mph 64% 0 in 0.00 W/m2 unknown
23:49 78.8 °F 66.2 °F 30.1 in ENE 1.9 mph 3.7 mph 64% 0 in 0.00 W/m2 unknown
23:54 78.8 °F 66.2 °F 30.1 in ENE 2.5 mph 3.7 mph 64% 0 in 0.00 W/m2 unknown
23:59 78.8 °F 66.2 °F 30.1 in ENE 3.1 mph 3.7 mph 64% 0 in 0.00 W/m2 unknown
Stazione Meteorologica MeteoMincio Rivalta s/M (MN)
Con i complimenti di Weather Underground - 4 mb



METEO PILLOLE
Il luogo più nebbioso degli USA
Cape Disappointment - Washington
Per 2552 ore (106 giorni) all'anno in media è avvolto da nebbia fitta.
Share

Non seguire questo link o sarai bannato dal sito!